sensor_id;sensor_type;location;lat;lon;timestamp;P1;durP1;ratioP1;P2;durP2;ratioP2
70850;SDS011;58475;49.662;9.636;2023-04-30T00:00:22;8.30;;;4.95;;
70850;SDS011;58475;49.662;9.636;2023-04-30T00:02:48;7.72;;;5.22;;
70850;SDS011;58475;49.662;9.636;2023-04-30T00:05:13;8.57;;;5.05;;
70850;SDS011;58475;49.662;9.636;2023-04-30T00:07:39;8.95;;;5.25;;
70850;SDS011;58475;49.662;9.636;2023-04-30T00:10:07;8.20;;;4.90;;
70850;SDS011;58475;49.662;9.636;2023-04-30T00:12:34;8.23;;;5.50;;
70850;SDS011;58475;49.662;9.636;2023-04-30T00:14:59;8.77;;;5.10;;
70850;SDS011;58475;49.662;9.636;2023-04-30T00:17:25;9.40;;;5.57;;
70850;SDS011;58475;49.662;9.636;2023-04-30T00:19:51;8.20;;;5.28;;
70850;SDS011;58475;49.662;9.636;2023-04-30T00:22:16;8.05;;;5.38;;
70850;SDS011;58475;49.662;9.636;2023-04-30T00:24:45;8.07;;;5.03;;
70850;SDS011;58475;49.662;9.636;2023-04-30T00:27:10;8.77;;;5.75;;
70850;SDS011;58475;49.662;9.636;2023-04-30T00:29:36;9.63;;;5.90;;
70850;SDS011;58475;49.662;9.636;2023-04-30T00:32:02;10.50;;;6.47;;
70850;SDS011;58475;49.662;9.636;2023-04-30T00:34:27;10.52;;;6.57;;
70850;SDS011;58475;49.662;9.636;2023-04-30T00:36:53;11.70;;;6.70;;
70850;SDS011;58475;49.662;9.636;2023-04-30T00:39:18;11.23;;;7.38;;
70850;SDS011;58475;49.662;9.636;2023-04-30T00:41:44;10.82;;;7.03;;
70850;SDS011;58475;49.662;9.636;2023-04-30T00:44:10;11.40;;;7.47;;
70850;SDS011;58475;49.662;9.636;2023-04-30T00:46:35;10.63;;;6.35;;
70850;SDS011;58475;49.662;9.636;2023-04-30T00:49:02;8.95;;;5.10;;
70850;SDS011;58475;49.662;9.636;2023-04-30T00:51:30;9.10;;;4.97;;
70850;SDS011;58475;49.662;9.636;2023-04-30T00:53:57;7.57;;;4.70;;
70850;SDS011;58475;49.662;9.636;2023-04-30T00:56:25;8.43;;;4.70;;
70850;SDS011;58475;49.662;9.636;2023-04-30T00:58:51;7.40;;;4.70;;
70850;SDS011;58475;49.662;9.636;2023-04-30T01:01:21;6.63;;;4.15;;
70850;SDS011;58475;49.662;9.636;2023-04-30T01:03:52;8.40;;;4.28;;
70850;SDS011;58475;49.662;9.636;2023-04-30T01:06:17;6.85;;;4.35;;
70850;SDS011;58475;49.662;9.636;2023-04-30T01:08:43;9.40;;;4.90;;
70850;SDS011;58475;49.662;9.636;2023-04-30T01:13:43;8.32;;;5.07;;
70850;SDS011;58475;49.662;9.636;2023-04-30T01:16:34;8.05;;;4.60;;
70850;SDS011;58475;49.662;9.636;2023-04-30T01:19:04;7.90;;;4.63;;
70850;SDS011;58475;49.662;9.636;2023-04-30T01:21:36;8.07;;;5.13;;
70850;SDS011;58475;49.662;9.636;2023-04-30T01:26:58;8.07;;;4.90;;
70850;SDS011;58475;49.662;9.636;2023-04-30T01:29:29;10.40;;;6.15;;
70850;SDS011;58475;49.662;9.636;2023-04-30T01:31:56;9.02;;;5.55;;
70850;SDS011;58475;49.662;9.636;2023-04-30T01:34:22;10.95;;;5.38;;
70850;SDS011;58475;49.662;9.636;2023-04-30T01:45:39;8.32;;;5.45;;
70850;SDS011;58475;49.662;9.636;2023-04-30T01:51:18;11.98;;;6.47;;
70850;SDS011;58475;49.662;9.636;2023-04-30T01:53:48;11.77;;;7.47;;
70850;SDS011;58475;49.662;9.636;2023-04-30T01:56:17;9.45;;;5.18;;
70850;SDS011;58475;49.662;9.636;2023-04-30T01:58:48;6.88;;;4.40;;
70850;SDS011;58475;49.662;9.636;2023-04-30T02:01:24;7.88;;;4.63;;
70850;SDS011;58475;49.662;9.636;2023-04-30T02:03:53;7.50;;;4.40;;
70850;SDS011;58475;49.662;9.636;2023-04-30T02:06:19;8.20;;;4.93;;
70850;SDS011;58475;49.662;9.636;2023-04-30T02:08:45;9.80;;;5.32;;
70850;SDS011;58475;49.662;9.636;2023-04-30T02:11:10;8.80;;;5.28;;
70850;SDS011;58475;49.662;9.636;2023-04-30T02:13:36;8.77;;;5.57;;
70850;SDS011;58475;49.662;9.636;2023-04-30T02:16:01;12.63;;;6.00;;
70850;SDS011;58475;49.662;9.636;2023-04-30T02:18:28;8.45;;;5.47;;
70850;SDS011;58475;49.662;9.636;2023-04-30T02:20:54;8.32;;;5.63;;
70850;SDS011;58475;49.662;9.636;2023-04-30T02:23:19;10.07;;;5.63;;
70850;SDS011;58475;49.662;9.636;2023-04-30T02:25:45;9.18;;;4.93;;
70850;SDS011;58475;49.662;9.636;2023-04-30T02:28:10;7.55;;;5.07;;
70850;SDS011;58475;49.662;9.636;2023-04-30T02:30:36;8.95;;;5.53;;
70850;SDS011;58475;49.662;9.636;2023-04-30T02:33:01;8.70;;;5.05;;
70850;SDS011;58475;49.662;9.636;2023-04-30T02:35:28;9.30;;;5.10;;
70850;SDS011;58475;49.662;9.636;2023-04-30T02:37:53;9.77;;;5.50;;
70850;SDS011;58475;49.662;9.636;2023-04-30T02:40:19;7.97;;;5.40;;
70850;SDS011;58475;49.662;9.636;2023-04-30T02:42:44;8.48;;;5.60;;
70850;SDS011;58475;49.662;9.636;2023-04-30T02:45:10;7.85;;;5.22;;
70850;SDS011;58475;49.662;9.636;2023-04-30T02:47:35;9.73;;;5.47;;
70850;SDS011;58475;49.662;9.636;2023-04-30T02:50:01;11.55;;;5.45;;
70850;SDS011;58475;49.662;9.636;2023-04-30T02:52:26;9.25;;;5.50;;
70850;SDS011;58475;49.662;9.636;2023-04-30T02:54:52;8.52;;;5.45;;
70850;SDS011;58475;49.662;9.636;2023-04-30T02:57:17;8.63;;;5.45;;
70850;SDS011;58475;49.662;9.636;2023-04-30T02:59:43;9.18;;;5.43;;
70850;SDS011;58475;49.662;9.636;2023-04-30T03:02:10;11.82;;;5.25;;
70850;SDS011;58475;49.662;9.636;2023-04-30T03:04:37;8.10;;;5.13;;
70850;SDS011;58475;49.662;9.636;2023-04-30T03:07:02;9.23;;;5.80;;
70850;SDS011;58475;49.662;9.636;2023-04-30T03:09:29;8.35;;;5.55;;
70850;SDS011;58475;49.662;9.636;2023-04-30T03:11:55;9.43;;;5.88;;
70850;SDS011;58475;49.662;9.636;2023-04-30T03:14:21;10.82;;;5.82;;
70850;SDS011;58475;49.662;9.636;2023-04-30T03:16:47;9.93;;;6.00;;
70850;SDS011;58475;49.662;9.636;2023-04-30T03:19:13;12.18;;;6.05;;
70850;SDS011;58475;49.662;9.636;2023-04-30T03:21:38;9.52;;;5.70;;
70850;SDS011;58475;49.662;9.636;2023-04-30T03:24:04;8.90;;;5.40;;
70850;SDS011;58475;49.662;9.636;2023-04-30T03:26:30;9.35;;;5.78;;
70850;SDS011;58475;49.662;9.636;2023-04-30T03:28:55;10.02;;;6.57;;
70850;SDS011;58475;49.662;9.636;2023-04-30T03:31:21;9.93;;;5.75;;
70850;SDS011;58475;49.662;9.636;2023-04-30T03:33:47;8.07;;;5.07;;
70850;SDS011;58475;49.662;9.636;2023-04-30T03:36:12;8.02;;;5.50;;
70850;SDS011;58475;49.662;9.636;2023-04-30T03:38:39;8.98;;;5.30;;
70850;SDS011;58475;49.662;9.636;2023-04-30T03:41:05;10.57;;;5.97;;
70850;SDS011;58475;49.662;9.636;2023-04-30T03:43:31;10.02;;;5.80;;
70850;SDS011;58475;49.662;9.636;2023-04-30T03:45:56;9.23;;;5.53;;
70850;SDS011;58475;49.662;9.636;2023-04-30T03:48:23;8.57;;;5.70;;
70850;SDS011;58475;49.662;9.636;2023-04-30T03:50:49;10.20;;;6.00;;
70850;SDS011;58475;49.662;9.636;2023-04-30T03:53:15;10.48;;;6.43;;
70850;SDS011;58475;49.662;9.636;2023-04-30T03:55:40;9.93;;;6.00;;
70850;SDS011;58475;49.662;9.636;2023-04-30T03:58:06;9.43;;;5.82;;
70850;SDS011;58475;49.662;9.636;2023-04-30T04:00:32;10.95;;;6.60;;
70850;SDS011;58475;49.662;9.636;2023-04-30T04:02:58;10.25;;;6.65;;
70850;SDS011;58475;49.662;9.636;2023-04-30T04:05:23;10.55;;;5.65;;
70850;SDS011;58475;49.662;9.636;2023-04-30T04:07:49;11.25;;;6.15;;
70850;SDS011;58475;49.662;9.636;2023-04-30T04:10:15;9.77;;;6.22;;
70850;SDS011;58475;49.662;9.636;2023-04-30T04:12:40;10.27;;;6.35;;
70850;SDS011;58475;49.662;9.636;2023-04-30T04:15:06;9.90;;;6.40;;
70850;SDS011;58475;49.662;9.636;2023-04-30T04:17:32;10.95;;;6.32;;
70850;SDS011;58475;49.662;9.636;2023-04-30T04:19:58;8.93;;;6.05;;
70850;SDS011;58475;49.662;9.636;2023-04-30T04:22:24;9.75;;;6.30;;
70850;SDS011;58475;49.662;9.636;2023-04-30T04:24:49;10.65;;;6.55;;
70850;SDS011;58475;49.662;9.636;2023-04-30T04:27:18;10.02;;;6.15;;
70850;SDS011;58475;49.662;9.636;2023-04-30T04:29:44;12.93;;;7.15;;
70850;SDS011;58475;49.662;9.636;2023-04-30T04:32:10;11.10;;;6.90;;
70850;SDS011;58475;49.662;9.636;2023-04-30T04:34:38;12.02;;;7.10;;
70850;SDS011;58475;49.662;9.636;2023-04-30T04:37:04;12.40;;;7.53;;
70850;SDS011;58475;49.662;9.636;2023-04-30T04:39:29;12.75;;;7.65;;
70850;SDS011;58475;49.662;9.636;2023-04-30T04:41:55;13.15;;;7.55;;
70850;SDS011;58475;49.662;9.636;2023-04-30T04:44:21;11.40;;;7.05;;
70850;SDS011;58475;49.662;9.636;2023-04-30T04:46:47;10.02;;;6.10;;
70850;SDS011;58475;49.662;9.636;2023-04-30T04:49:13;12.25;;;7.15;;
70850;SDS011;58475;49.662;9.636;2023-04-30T04:51:39;13.15;;;6.68;;
70850;SDS011;58475;49.662;9.636;2023-04-30T04:54:05;11.10;;;6.90;;
70850;SDS011;58475;49.662;9.636;2023-04-30T04:56:31;9.25;;;6.38;;
70850;SDS011;58475;49.662;9.636;2023-04-30T04:58:57;9.50;;;6.13;;
70850;SDS011;58475;49.662;9.636;2023-04-30T05:01:23;11.68;;;6.07;;
70850;SDS011;58475;49.662;9.636;2023-04-30T05:03:48;9.13;;;6.38;;
70850;SDS011;58475;49.662;9.636;2023-04-30T05:06:14;12.50;;;6.35;;
70850;SDS011;58475;49.662;9.636;2023-04-30T05:08:40;9.65;;;6.28;;
70850;SDS011;58475;49.662;9.636;2023-04-30T05:11:06;10.40;;;6.85;;
70850;SDS011;58475;49.662;9.636;2023-04-30T05:13:31;11.05;;;6.70;;
70850;SDS011;58475;49.662;9.636;2023-04-30T05:15:57;12.50;;;6.78;;
70850;SDS011;58475;49.662;9.636;2023-04-30T05:18:22;10.57;;;6.28;;
70850;SDS011;58475;49.662;9.636;2023-04-30T05:20:48;10.35;;;6.47;;
70850;SDS011;58475;49.662;9.636;2023-04-30T05:23:13;9.93;;;6.53;;
70850;SDS011;58475;49.662;9.636;2023-04-30T05:25:39;10.68;;;6.53;;
70850;SDS011;58475;49.662;9.636;2023-04-30T05:28:04;11.38;;;6.63;;
70850;SDS011;58475;49.662;9.636;2023-04-30T05:30:31;9.23;;;6.25;;
70850;SDS011;58475;49.662;9.636;2023-04-30T05:32:56;10.98;;;7.00;;
70850;SDS011;58475;49.662;9.636;2023-04-30T05:35:22;9.95;;;6.55;;
70850;SDS011;58475;49.662;9.636;2023-04-30T05:37:48;11.18;;;7.00;;
70850;SDS011;58475;49.662;9.636;2023-04-30T05:40:13;10.90;;;7.05;;
70850;SDS011;58475;49.662;9.636;2023-04-30T05:42:39;11.57;;;7.80;;
70850;SDS011;58475;49.662;9.636;2023-04-30T05:45:07;12.75;;;8.25;;
70850;SDS011;58475;49.662;9.636;2023-04-30T05:47:34;12.05;;;8.20;;
70850;SDS011;58475;49.662;9.636;2023-04-30T05:49:59;12.98;;;7.75;;
70850;SDS011;58475;49.662;9.636;2023-04-30T05:52:25;12.10;;;8.23;;
70850;SDS011;58475;49.662;9.636;2023-04-30T05:54:50;14.30;;;8.48;;
70850;SDS011;58475;49.662;9.636;2023-04-30T05:57:16;13.90;;;9.05;;
70850;SDS011;58475;49.662;9.636;2023-04-30T05:59:41;12.27;;;8.82;;
70850;SDS011;58475;49.662;9.636;2023-04-30T06:02:07;14.50;;;8.88;;
70850;SDS011;58475;49.662;9.636;2023-04-30T06:04:33;14.18;;;8.98;;
70850;SDS011;58475;49.662;9.636;2023-04-30T06:06:58;15.75;;;8.38;;
70850;SDS011;58475;49.662;9.636;2023-04-30T06:09:23;16.83;;;8.95;;
70850;SDS011;58475;49.662;9.636;2023-04-30T06:11:49;16.70;;;8.95;;
70850;SDS011;58475;49.662;9.636;2023-04-30T06:14:19;14.48;;;8.57;;
70850;SDS011;58475;49.662;9.636;2023-04-30T06:16:46;15.13;;;9.13;;
70850;SDS011;58475;49.662;9.636;2023-04-30T06:19:12;12.20;;;8.45;;
70850;SDS011;58475;49.662;9.636;2023-04-30T06:21:37;12.57;;;8.25;;
70850;SDS011;58475;49.662;9.636;2023-04-30T06:24:03;12.45;;;8.40;;
70850;SDS011;58475;49.662;9.636;2023-04-30T06:26:29;12.43;;;8.00;;
70850;SDS011;58475;49.662;9.636;2023-04-30T06:28:55;11.98;;;8.00;;
70850;SDS011;58475;49.662;9.636;2023-04-30T06:31:21;11.15;;;7.85;;
70850;SDS011;58475;49.662;9.636;2023-04-30T06:33:46;12.18;;;7.97;;
70850;SDS011;58475;49.662;9.636;2023-04-30T06:36:12;10.63;;;7.32;;
70850;SDS011;58475;49.662;9.636;2023-04-30T06:38:39;10.20;;;7.32;;
70850;SDS011;58475;49.662;9.636;2023-04-30T06:41:05;12.75;;;7.38;;
70850;SDS011;58475;49.662;9.636;2023-04-30T06:43:31;10.45;;;7.60;;
70850;SDS011;58475;49.662;9.636;2023-04-30T06:45:56;12.95;;;7.20;;
70850;SDS011;58475;49.662;9.636;2023-04-30T06:48:22;10.82;;;7.30;;
70850;SDS011;58475;49.662;9.636;2023-04-30T06:50:47;11.63;;;7.65;;
70850;SDS011;58475;49.662;9.636;2023-04-30T06:53:13;13.77;;;7.88;;
70850;SDS011;58475;49.662;9.636;2023-04-30T06:55:39;12.25;;;7.88;;
70850;SDS011;58475;49.662;9.636;2023-04-30T06:58:05;11.68;;;7.72;;
70850;SDS011;58475;49.662;9.636;2023-04-30T07:00:32;11.60;;;7.40;;
70850;SDS011;58475;49.662;9.636;2023-04-30T07:02:58;11.23;;;6.97;;
70850;SDS011;58475;49.662;9.636;2023-04-30T07:05:27;10.82;;;6.78;;
70850;SDS011;58475;49.662;9.636;2023-04-30T07:08:03;11.10;;;6.63;;
70850;SDS011;58475;49.662;9.636;2023-04-30T07:10:31;10.80;;;6.80;;
70850;SDS011;58475;49.662;9.636;2023-04-30T07:12:57;12.35;;;6.93;;
70850;SDS011;58475;49.662;9.636;2023-04-30T07:15:23;10.77;;;6.63;;
70850;SDS011;58475;49.662;9.636;2023-04-30T07:17:49;12.23;;;7.00;;
70850;SDS011;58475;49.662;9.636;2023-04-30T07:20:18;10.57;;;6.50;;
70850;SDS011;58475;49.662;9.636;2023-04-30T07:22:46;12.48;;;7.22;;
70850;SDS011;58475;49.662;9.636;2023-04-30T07:25:12;11.10;;;7.05;;
70850;SDS011;58475;49.662;9.636;2023-04-30T07:27:44;10.60;;;6.65;;
70850;SDS011;58475;49.662;9.636;2023-04-30T07:30:10;11.32;;;6.88;;
70850;SDS011;58475;49.662;9.636;2023-04-30T07:32:41;11.02;;;7.00;;
70850;SDS011;58475;49.662;9.636;2023-04-30T07:35:09;12.43;;;7.18;;
70850;SDS011;58475;49.662;9.636;2023-04-30T07:37:34;9.73;;;6.18;;
70850;SDS011;58475;49.662;9.636;2023-04-30T07:40:00;10.93;;;6.38;;
70850;SDS011;58475;49.662;9.636;2023-04-30T07:42:28;10.30;;;6.32;;
70850;SDS011;58475;49.662;9.636;2023-04-30T07:44:54;9.00;;;6.45;;
70850;SDS011;58475;49.662;9.636;2023-04-30T07:47:19;8.98;;;6.43;;
70850;SDS011;58475;49.662;9.636;2023-04-30T07:49:45;9.70;;;6.90;;
70850;SDS011;58475;49.662;9.636;2023-04-30T07:52:12;10.10;;;6.10;;
70850;SDS011;58475;49.662;9.636;2023-04-30T07:54:38;10.88;;;6.47;;
70850;SDS011;58475;49.662;9.636;2023-04-30T07:57:10;9.07;;;6.10;;
70850;SDS011;58475;49.662;9.636;2023-04-30T07:59:39;9.55;;;5.57;;
70850;SDS011;58475;49.662;9.636;2023-04-30T08:02:06;9.10;;;5.15;;
70850;SDS011;58475;49.662;9.636;2023-04-30T08:04:32;8.52;;;5.32;;
70850;SDS011;58475;49.662;9.636;2023-04-30T08:06:58;7.38;;;4.50;;
70850;SDS011;58475;49.662;9.636;2023-04-30T08:09:23;9.75;;;5.00;;
70850;SDS011;58475;49.662;9.636;2023-04-30T08:11:49;8.52;;;4.47;;
70850;SDS011;58475;49.662;9.636;2023-04-30T08:14:14;8.10;;;4.50;;
70850;SDS011;58475;49.662;9.636;2023-04-30T08:16:40;9.23;;;4.10;;
70850;SDS011;58475;49.662;9.636;2023-04-30T08:19:09;7.13;;;4.05;;
70850;SDS011;58475;49.662;9.636;2023-04-30T08:21:34;9.27;;;4.60;;
70850;SDS011;58475;49.662;9.636;2023-04-30T08:24:00;9.82;;;4.90;;
70850;SDS011;58475;49.662;9.636;2023-04-30T08:26:26;6.47;;;4.20;;
70850;SDS011;58475;49.662;9.636;2023-04-30T08:28:51;6.63;;;4.18;;
70850;SDS011;58475;49.662;9.636;2023-04-30T08:31:16;7.63;;;4.13;;
70850;SDS011;58475;49.662;9.636;2023-04-30T08:33:43;8.07;;;4.22;;
70850;SDS011;58475;49.662;9.636;2023-04-30T08:36:09;7.45;;;3.60;;
70850;SDS011;58475;49.662;9.636;2023-04-30T08:38:35;6.38;;;4.15;;
70850;SDS011;58475;49.662;9.636;2023-04-30T08:43:34;8.20;;;4.30;;
70850;SDS011;58475;49.662;9.636;2023-04-30T08:46:04;6.78;;;4.30;;
70850;SDS011;58475;49.662;9.636;2023-04-30T08:48:32;7.07;;;4.25;;
70850;SDS011;58475;49.662;9.636;2023-04-30T08:51:02;7.25;;;4.47;;
70850;SDS011;58475;49.662;9.636;2023-04-30T08:53:30;6.90;;;3.95;;
70850;SDS011;58475;49.662;9.636;2023-04-30T08:56:00;6.93;;;3.55;;
70850;SDS011;58475;49.662;9.636;2023-04-30T08:58:31;7.00;;;3.42;;
70850;SDS011;58475;49.662;9.636;2023-04-30T09:01:00;5.80;;;3.13;;
70850;SDS011;58475;49.662;9.636;2023-04-30T09:03:25;7.78;;;3.38;;
70850;SDS011;58475;49.662;9.636;2023-04-30T09:05:52;7.13;;;3.83;;
70850;SDS011;58475;49.662;9.636;2023-04-30T09:08:19;8.10;;;3.97;;
70850;SDS011;58475;49.662;9.636;2023-04-30T09:11:18;6.47;;;3.00;;
70850;SDS011;58475;49.662;9.636;2023-04-30T09:13:56;6.00;;;3.40;;
70850;SDS011;58475;49.662;9.636;2023-04-30T09:16:23;7.00;;;3.40;;
70850;SDS011;58475;49.662;9.636;2023-04-30T09:18:54;6.50;;;3.80;;
70850;SDS011;58475;49.662;9.636;2023-04-30T09:21:34;6.65;;;3.63;;
70850;SDS011;58475;49.662;9.636;2023-04-30T09:24:01;6.57;;;3.80;;
70850;SDS011;58475;49.662;9.636;2023-04-30T09:26:33;7.18;;;3.83;;
70850;SDS011;58475;49.662;9.636;2023-04-30T09:29:01;6.43;;;3.40;;
70850;SDS011;58475;49.662;9.636;2023-04-30T09:31:32;6.57;;;3.50;;
70850;SDS011;58475;49.662;9.636;2023-04-30T09:34:04;8.63;;;3.45;;
70850;SDS011;58475;49.662;9.636;2023-04-30T09:36:33;6.10;;;3.47;;
70850;SDS011;58475;49.662;9.636;2023-04-30T09:39:06;6.22;;;3.00;;
70850;SDS011;58475;49.662;9.636;2023-04-30T09:41:33;5.53;;;3.00;;
70850;SDS011;58475;49.662;9.636;2023-04-30T09:43:59;7.07;;;2.85;;
70850;SDS011;58475;49.662;9.636;2023-04-30T09:46:32;4.85;;;2.60;;
70850;SDS011;58475;49.662;9.636;2023-04-30T09:49:03;5.97;;;2.78;;
70850;SDS011;58475;49.662;9.636;2023-04-30T09:51:31;4.97;;;2.75;;
70850;SDS011;58475;49.662;9.636;2023-04-30T09:53:57;4.55;;;2.63;;
70850;SDS011;58475;49.662;9.636;2023-04-30T09:56:24;4.40;;;2.53;;
70850;SDS011;58475;49.662;9.636;2023-04-30T09:58:51;4.85;;;2.47;;
70850;SDS011;58475;49.662;9.636;2023-04-30T10:01:20;6.75;;;2.90;;
70850;SDS011;58475;49.662;9.636;2023-04-30T10:03:46;5.60;;;2.72;;
70850;SDS011;58475;49.662;9.636;2023-04-30T10:06:13;6.45;;;2.65;;
70850;SDS011;58475;49.662;9.636;2023-04-30T10:08:42;5.45;;;2.95;;
70850;SDS011;58475;49.662;9.636;2023-04-30T10:11:09;6.55;;;2.95;;
70850;SDS011;58475;49.662;9.636;2023-04-30T10:19:22;5.63;;;2.47;;
70850;SDS011;58475;49.662;9.636;2023-04-30T10:21:49;4.78;;;2.42;;
70850;SDS011;58475;49.662;9.636;2023-04-30T10:24:16;5.40;;;2.33;;
70850;SDS011;58475;49.662;9.636;2023-04-30T10:26:44;4.57;;;2.30;;
70850;SDS011;58475;49.662;9.636;2023-04-30T10:29:11;4.68;;;2.45;;
70850;SDS011;58475;49.662;9.636;2023-04-30T10:31:37;5.78;;;2.40;;
70850;SDS011;58475;49.662;9.636;2023-04-30T10:37:13;4.30;;;2.38;;
70850;SDS011;58475;49.662;9.636;2023-04-30T10:39:50;4.88;;;2.30;;
70850;SDS011;58475;49.662;9.636;2023-04-30T10:42:25;4.47;;;2.20;;
70850;SDS011;58475;49.662;9.636;2023-04-30T10:44:51;4.18;;;2.40;;
70850;SDS011;58475;49.662;9.636;2023-04-30T10:47:32;4.03;;;2.20;;
70850;SDS011;58475;49.662;9.636;2023-04-30T10:50:22;4.28;;;2.17;;
70850;SDS011;58475;49.662;9.636;2023-04-30T10:52:48;3.72;;;1.98;;
70850;SDS011;58475;49.662;9.636;2023-04-30T10:55:28;5.20;;;2.10;;
70850;SDS011;58475;49.662;9.636;2023-04-30T10:58:36;4.75;;;2.10;;
70850;SDS011;58475;49.662;9.636;2023-04-30T11:01:23;5.03;;;2.58;;
70850;SDS011;58475;49.662;9.636;2023-04-30T11:04:12;4.30;;;2.20;;
70850;SDS011;58475;49.662;9.636;2023-04-30T11:09:13;4.13;;;2.30;;
70850;SDS011;58475;49.662;9.636;2023-04-30T11:11:46;3.50;;;2.20;;
70850;SDS011;58475;49.662;9.636;2023-04-30T11:14:23;4.53;;;2.20;;
70850;SDS011;58475;49.662;9.636;2023-04-30T11:16:53;4.30;;;2.20;;
70850;SDS011;58475;49.662;9.636;2023-04-30T11:19:19;4.38;;;2.30;;
70850;SDS011;58475;49.662;9.636;2023-04-30T11:29:54;4.07;;;2.10;;
70850;SDS011;58475;49.662;9.636;2023-04-30T11:32:31;3.42;;;1.92;;
70850;SDS011;58475;49.662;9.636;2023-04-30T11:34:59;3.35;;;1.90;;
70850;SDS011;58475;49.662;9.636;2023-04-30T11:40:03;3.55;;;2.10;;
70850;SDS011;58475;49.662;9.636;2023-04-30T11:42:55;3.63;;;2.05;;
70850;SDS011;58475;49.662;9.636;2023-04-30T11:45:28;4.15;;;2.22;;
70850;SDS011;58475;49.662;9.636;2023-04-30T11:48:04;4.00;;;2.10;;
70850;SDS011;58475;49.662;9.636;2023-04-30T11:50:42;3.38;;;2.00;;
70850;SDS011;58475;49.662;9.636;2023-04-30T11:53:18;3.95;;;2.00;;
70850;SDS011;58475;49.662;9.636;2023-04-30T11:56:03;3.00;;;1.90;;
70850;SDS011;58475;49.662;9.636;2023-04-30T11:58:41;3.97;;;2.03;;
70850;SDS011;58475;49.662;9.636;2023-04-30T12:01:35;4.90;;;2.10;;
70850;SDS011;58475;49.662;9.636;2023-04-30T12:04:12;3.95;;;2.05;;
70850;SDS011;58475;49.662;9.636;2023-04-30T12:06:50;3.55;;;1.90;;
70850;SDS011;58475;49.662;9.636;2023-04-30T12:09:16;3.22;;;1.88;;
70850;SDS011;58475;49.662;9.636;2023-04-30T12:11:41;4.32;;;2.15;;
70850;SDS011;58475;49.662;9.636;2023-04-30T12:14:08;5.35;;;1.98;;
70850;SDS011;58475;49.662;9.636;2023-04-30T12:16:39;3.70;;;2.10;;
70850;SDS011;58475;49.662;9.636;2023-04-30T12:19:09;3.63;;;1.85;;
70850;SDS011;58475;49.662;9.636;2023-04-30T12:21:35;2.50;;;1.80;;
70850;SDS011;58475;49.662;9.636;2023-04-30T12:24:01;4.10;;;2.10;;
70850;SDS011;58475;49.662;9.636;2023-04-30T12:26:34;3.92;;;1.90;;
70850;SDS011;58475;49.662;9.636;2023-04-30T12:29:13;3.63;;;1.90;;
70850;SDS011;58475;49.662;9.636;2023-04-30T12:31:39;2.88;;;1.77;;
70850;SDS011;58475;49.662;9.636;2023-04-30T12:34:09;3.38;;;1.85;;
70850;SDS011;58475;49.662;9.636;2023-04-30T12:36:38;2.83;;;1.77;;
70850;SDS011;58475;49.662;9.636;2023-04-30T12:39:14;2.75;;;1.70;;
70850;SDS011;58475;49.662;9.636;2023-04-30T12:41:40;2.78;;;1.60;;
70850;SDS011;58475;49.662;9.636;2023-04-30T12:46:47;3.50;;;1.90;;
70850;SDS011;58475;49.662;9.636;2023-04-30T12:49:24;4.25;;;2.00;;
70850;SDS011;58475;49.662;9.636;2023-04-30T12:52:03;4.95;;;2.03;;
70850;SDS011;58475;49.662;9.636;2023-04-30T12:54:38;4.13;;;1.98;;
70850;SDS011;58475;49.662;9.636;2023-04-30T12:57:08;4.07;;;2.13;;
70850;SDS011;58475;49.662;9.636;2023-04-30T13:02:10;3.72;;;1.73;;
70850;SDS011;58475;49.662;9.636;2023-04-30T13:04:42;3.28;;;1.70;;
70850;SDS011;58475;49.662;9.636;2023-04-30T13:07:08;3.85;;;1.90;;
70850;SDS011;58475;49.662;9.636;2023-04-30T13:09:34;2.83;;;1.60;;
70850;SDS011;58475;49.662;9.636;2023-04-30T13:12:01;3.72;;;1.90;;
70850;SDS011;58475;49.662;9.636;2023-04-30T13:14:27;2.83;;;1.67;;
70850;SDS011;58475;49.662;9.636;2023-04-30T13:16:52;4.57;;;1.77;;
70850;SDS011;58475;49.662;9.636;2023-04-30T13:19:18;3.30;;;1.92;;
70850;SDS011;58475;49.662;9.636;2023-04-30T13:21:44;3.58;;;1.63;;
70850;SDS011;58475;49.662;9.636;2023-04-30T13:24:09;3.00;;;1.65;;
70850;SDS011;58475;49.662;9.636;2023-04-30T13:26:35;3.67;;;1.52;;
70850;SDS011;58475;49.662;9.636;2023-04-30T13:29:00;2.47;;;1.60;;
70850;SDS011;58475;49.662;9.636;2023-04-30T13:31:26;2.50;;;1.80;;
70850;SDS011;58475;49.662;9.636;2023-04-30T13:33:52;5.10;;;1.63;;
70850;SDS011;58475;49.662;9.636;2023-04-30T13:36:19;3.50;;;1.60;;
70850;SDS011;58475;49.662;9.636;2023-04-30T13:38:45;3.45;;;1.70;;
70850;SDS011;58475;49.662;9.636;2023-04-30T13:41:10;2.28;;;1.50;;
70850;SDS011;58475;49.662;9.636;2023-04-30T13:43:36;2.90;;;1.80;;
70850;SDS011;58475;49.662;9.636;2023-04-30T13:46:08;4.43;;;1.70;;
70850;SDS011;58475;49.662;9.636;2023-04-30T13:48:34;3.83;;;2.05;;
70850;SDS011;58475;49.662;9.636;2023-04-30T13:50:59;3.28;;;1.80;;
70850;SDS011;58475;49.662;9.636;2023-04-30T13:53:25;2.60;;;1.60;;
70850;SDS011;58475;49.662;9.636;2023-04-30T13:55:51;2.88;;;1.42;;
70850;SDS011;58475;49.662;9.636;2023-04-30T13:58:17;4.50;;;1.88;;
70850;SDS011;58475;49.662;9.636;2023-04-30T14:00:42;2.88;;;1.67;;
70850;SDS011;58475;49.662;9.636;2023-04-30T14:03:08;2.55;;;1.45;;
70850;SDS011;58475;49.662;9.636;2023-04-30T14:05:34;3.30;;;1.42;;
70850;SDS011;58475;49.662;9.636;2023-04-30T14:08:00;2.13;;;1.60;;
70850;SDS011;58475;49.662;9.636;2023-04-30T14:10:25;3.28;;;1.80;;
70850;SDS011;58475;49.662;9.636;2023-04-30T14:12:51;3.28;;;1.60;;
70850;SDS011;58475;49.662;9.636;2023-04-30T14:15:16;3.30;;;1.70;;
70850;SDS011;58475;49.662;9.636;2023-04-30T14:17:42;2.90;;;1.65;;
70850;SDS011;58475;49.662;9.636;2023-04-30T14:20:07;2.72;;;1.60;;
70850;SDS011;58475;49.662;9.636;2023-04-30T14:22:33;3.75;;;1.65;;
70850;SDS011;58475;49.662;9.636;2023-04-30T14:25:02;2.58;;;1.50;;
70850;SDS011;58475;49.662;9.636;2023-04-30T14:27:29;2.80;;;1.60;;
70850;SDS011;58475;49.662;9.636;2023-04-30T14:29:54;2.75;;;1.60;;
70850;SDS011;58475;49.662;9.636;2023-04-30T14:32:20;2.13;;;1.50;;
70850;SDS011;58475;49.662;9.636;2023-04-30T14:34:46;2.20;;;1.50;;
70850;SDS011;58475;49.662;9.636;2023-04-30T14:37:12;2.30;;;1.42;;
70850;SDS011;58475;49.662;9.636;2023-04-30T14:39:37;3.10;;;1.70;;
70850;SDS011;58475;49.662;9.636;2023-04-30T14:42:03;2.53;;;1.52;;
70850;SDS011;58475;49.662;9.636;2023-04-30T14:44:28;2.08;;;1.45;;
70850;SDS011;58475;49.662;9.636;2023-04-30T14:46:54;2.42;;;1.55;;
70850;SDS011;58475;49.662;9.636;2023-04-30T14:49:20;2.67;;;1.50;;
70850;SDS011;58475;49.662;9.636;2023-04-30T14:51:45;2.67;;;1.30;;
70850;SDS011;58475;49.662;9.636;2023-04-30T14:54:10;2.33;;;1.50;;
70850;SDS011;58475;49.662;9.636;2023-04-30T14:56:36;2.55;;;1.80;;
70850;SDS011;58475;49.662;9.636;2023-04-30T14:59:02;2.75;;;1.40;;
70850;SDS011;58475;49.662;9.636;2023-04-30T15:01:27;2.92;;;1.40;;
70850;SDS011;58475;49.662;9.636;2023-04-30T15:03:54;1.45;;;1.30;;
70850;SDS011;58475;49.662;9.636;2023-04-30T15:06:20;3.85;;;1.60;;
70850;SDS011;58475;49.662;9.636;2023-04-30T15:08:45;2.03;;;1.40;;
70850;SDS011;58475;49.662;9.636;2023-04-30T15:11:11;4.45;;;1.40;;
70850;SDS011;58475;49.662;9.636;2023-04-30T15:13:37;1.60;;;1.27;;
70850;SDS011;58475;49.662;9.636;2023-04-30T15:16:03;2.15;;;1.38;;
70850;SDS011;58475;49.662;9.636;2023-04-30T15:18:29;3.42;;;1.60;;
70850;SDS011;58475;49.662;9.636;2023-04-30T15:20:57;3.13;;;1.33;;
70850;SDS011;58475;49.662;9.636;2023-04-30T15:23:23;3.75;;;1.92;;
70850;SDS011;58475;49.662;9.636;2023-04-30T15:25:48;5.15;;;2.30;;
70850;SDS011;58475;49.662;9.636;2023-04-30T15:28:14;2.78;;;1.75;;
70850;SDS011;58475;49.662;9.636;2023-04-30T15:30:43;2.80;;;1.63;;
70850;SDS011;58475;49.662;9.636;2023-04-30T15:33:08;2.67;;;1.60;;